Time;durP1;ratioP1;P1;durP2;ratioP2;P2;SDS_P1;SDS_P2;PMS_P1;PMS_P2;Temp;Humidity;BMP_temperature;BMP_pressure;BME280_temperature;BME280_humidity;BME280_pressure;Samples;Min_cycle;Max_cycle;Signal;HPM_P1;HPM_P2
2022/05/17 00:00:44;;;;;;;8.73;7.73;;;;;;;;;;4991301;28;20184;-77
2022/05/17 00:03:10;;;;;;;8.60;7.73;;;;;;;;;;4974952;28;20223;-77
2022/05/17 00:05:36;;;;;;;8.37;7.57;;;;;;;;;;4975202;28;20187;-77
2022/05/17 00:08:03;;;;;;;8.20;7.40;;;;;;;;;;4990908;28;20635;-77
2022/05/17 00:10:29;;;;;;;8.40;7.37;;;;;;;;;;4974870;28;20180;-77
2022/05/17 00:12:55;;;;;;;8.87;7.97;;;;;;;;;;4974650;28;20192;-77
2022/05/17 00:15:22;;;;;;;8.33;7.40;;;;;;;;;;4990954;28;20192;-77
2022/05/17 00:17:48;;;;;;;9.20;7.50;;;;;;;;;;4976109;28;20183;-77
2022/05/17 00:20:15;;;;;;;9.03;8.13;;;;;;;;;;4990911;28;20172;-77
2022/05/17 00:22:41;;;;;;;9.03;7.90;;;;;;;;;;4990707;28;20204;-77
2022/05/17 00:25:08;;;;;;;7.83;7.10;;;;;;;;;;4974564;28;20187;-78
2022/05/17 00:27:34;;;;;;;6.50;5.90;;;;;;;;;;4990768;28;20284;-77
2022/05/17 00:30:01;;;;;;;6.33;5.40;;;;;;;;;;4974472;28;20223;-77
2022/05/17 00:32:27;;;;;;;7.90;7.10;;;;;;;;;;4974633;28;20287;-77
2022/05/17 00:34:53;;;;;;;7.03;6.43;;;;;;;;;;4990694;28;20663;-77
2022/05/17 00:37:20;;;;;;;8.60;7.80;;;;;;;;;;4974395;28;20177;-77
2022/05/17 00:39:46;;;;;;;6.17;5.63;;;;;;;;;;4974858;28;20239;-77
2022/05/17 00:42:12;;;;;;;6.00;5.50;;;;;;;;;;4974135;28;20559;-78
2022/05/17 00:44:44;;;;;;;7.30;6.70;;;;;;;;;;4990437;28;20176;-77
2022/05/17 00:47:10;;;;;;;7.70;7.00;;;;;;;;;;4974597;28;20551;-77
2022/05/17 00:49:41;;;;;;;9.70;8.80;;;;;;;;;;4990482;28;20298;-77
2022/05/17 00:52:11;;;;;;;9.80;8.90;;;;;;;;;;4990174;28;20635;-77
2022/05/17 00:54:38;;;;;;;7.87;7.17;;;;;;;;;;4990292;28;20200;-77
2022/05/17 00:57:07;;;;;;;10.67;7.17;;;;;;;;;;4990238;28;20180;-78
2022/05/17 00:59:34;;;;;;;8.57;7.67;;;;;;;;;;4990438;28;20180;-77
2022/05/17 01:02:00;;;;;;;8.47;7.63;;;;;;;;;;4989976;28;20180;-77
2022/05/17 01:04:27;;;;;;;9.40;8.40;;;;;;;;;;4983734;23;20232;-76
2022/05/17 01:07:02;;;;;;;8.30;7.60;;;;;;;;;;4973884;28;20614;-77
2022/05/17 01:09:28;;;;;;;7.90;7.00;;;;;;;;;;4973684;28;20196;-77
2022/05/17 01:11:54;;;;;;;8.43;7.63;;;;;;;;;;4973865;28;20176;-77
2022/05/17 01:17:06;;;;;;;7.13;6.43;;;;;;;;;;4975153;28;20195;-77
2022/05/17 01:19:32;;;;;;;7.60;6.90;;;;;;;;;;4973780;28;20208;-77
2022/05/17 01:21:58;;;;;;;8.20;7.10;;;;;;;;;;4973406;28;20211;-77
2022/05/17 01:24:25;;;;;;;6.43;5.83;;;;;;;;;;4957535;28;20215;-77
2022/05/17 01:26:54;;;;;;;7.33;6.67;;;;;;;;;;4973520;28;20191;-77
2022/05/17 01:29:20;;;;;;;7.40;6.60;;;;;;;;;;4973524;28;20259;-77
2022/05/17 01:31:48;;;;;;;7.00;6.30;;;;;;;;;;4973250;28;20176;-77
2022/05/17 01:34:14;;;;;;;6.67;6.07;;;;;;;;;;4957426;28;20283;-77
2022/05/17 01:36:41;;;;;;;6.07;5.57;;;;;;;;;;4957493;28;20253;-77
2022/05/17 01:39:07;;;;;;;7.27;6.57;;;;;;;;;;4973427;28;20183;-77
2022/05/17 01:41:33;;;;;;;7.57;6.87;;;;;;;;;;4957214;28;20184;-77
2022/05/17 01:44:00;;;;;;;6.20;5.70;;;;;;;;;;4973018;28;20200;-77
2022/05/17 01:46:26;;;;;;;7.67;7.00;;;;;;;;;;4973067;28;20181;-77
2022/05/17 01:48:53;;;;;;;8.00;7.20;;;;;;;;;;4972903;28;20200;-77
2022/05/17 01:51:20;;;;;;;8.07;7.37;;;;;;;;;;4957239;28;20602;-76
2022/05/17 01:53:47;;;;;;;7.13;6.50;;;;;;;;;;4972847;28;20192;-77
2022/05/17 01:56:13;;;;;;;8.07;6.40;;;;;;;;;;4973036;28;20191;-77
2022/05/17 01:58:39;;;;;;;8.13;7.43;;;;;;;;;;4972284;28;20176;-77
2022/05/17 02:01:07;;;;;;;7.57;6.77;;;;;;;;;;4956851;28;20595;-77
2022/05/17 02:03:33;;;;;;;7.87;7.00;;;;;;;;;;4972500;28;20308;-77
2022/05/17 02:05:59;;;;;;;7.37;6.77;;;;;;;;;;4956927;28;20206;-77
2022/05/17 02:08:25;;;;;;;5.37;4.97;;;;;;;;;;4973939;28;20208;-77
2022/05/17 02:10:51;;;;;;;7.50;6.80;;;;;;;;;;4956626;28;20683;-77
2022/05/17 02:13:18;;;;;;;7.20;6.50;;;;;;;;;;4973636;28;20215;-77
2022/05/17 02:15:44;;;;;;;7.10;6.50;;;;;;;;;;4973980;28;20180;-77
2022/05/17 02:18:10;;;;;;;7.60;6.90;;;;;;;;;;4956538;28;20238;-77
2022/05/17 02:20:36;;;;;;;6.87;6.27;;;;;;;;;;4972598;28;20177;-77
2022/05/17 02:23:02;;;;;;;6.97;6.43;;;;;;;;;;4972220;28;20208;-77
2022/05/17 02:25:28;;;;;;;7.60;6.73;;;;;;;;;;4972591;28;20184;-77
2022/05/17 02:27:54;;;;;;;7.53;6.83;;;;;;;;;;4972386;28;20235;-77
2022/05/17 02:30:20;;;;;;;7.37;6.77;;;;;;;;;;4973783;28;20284;-77
2022/05/17 02:32:46;;;;;;;7.80;7.07;;;;;;;;;;4956063;28;20193;-77
2022/05/17 02:35:13;;;;;;;7.00;6.40;;;;;;;;;;4972330;28;20543;-77
2022/05/17 02:37:39;;;;;;;7.63;7.03;;;;;;;;;;4972508;28;20176;-76
2022/05/17 02:40:06;;;;;;;7.90;7.20;;;;;;;;;;4956441;28;20212;-77
2022/05/17 02:42:32;;;;;;;8.37;7.57;;;;;;;;;;4973205;28;20176;-77
2022/05/17 02:44:58;;;;;;;8.13;7.33;;;;;;;;;;4956273;28;20303;-77
2022/05/17 02:47:24;;;;;;;10.43;8.40;;;;;;;;;;4973726;28;20657;-77
2022/05/17 02:49:50;;;;;;;8.47;7.40;;;;;;;;;;4973753;28;20176;-77
2022/05/17 02:52:17;;;;;;;8.40;7.70;;;;;;;;;;4971894;28;20666;-77
2022/05/17 02:54:43;;;;;;;8.00;7.30;;;;;;;;;;4956240;28;20200;-77
2022/05/17 02:57:09;;;;;;;9.77;8.77;;;;;;;;;;4956192;28;20276;-77
2022/05/17 02:59:35;;;;;;;9.97;8.57;;;;;;;;;;4972127;28;20177;-77
2022/05/17 03:02:01;;;;;;;9.87;8.60;;;;;;;;;;4955901;28;20192;-77
2022/05/17 03:04:28;;;;;;;10.83;8.87;;;;;;;;;;4972003;28;20262;-77
2022/05/17 03:06:54;;;;;;;10.10;9.00;;;;;;;;;;4972037;28;20184;-77
2022/05/17 03:09:20;;;;;;;9.90;8.63;;;;;;;;;;4971937;28;20295;-77
2022/05/17 03:11:46;;;;;;;9.93;8.30;;;;;;;;;;4975535;28;20177;-77
2022/05/17 03:14:14;;;;;;;10.07;8.87;;;;;;;;;;4959820;28;20200;-77
2022/05/17 03:16:40;;;;;;;8.90;8.10;;;;;;;;;;4959807;28;20234;-77
2022/05/17 03:19:06;;;;;;;9.00;8.10;;;;;;;;;;4959945;28;20622;-77
2022/05/17 03:21:32;;;;;;;8.77;7.73;;;;;;;;;;4959914;28;20231;-77
2022/05/17 03:23:58;;;;;;;9.50;8.60;;;;;;;;;;4959609;28;20208;-77
2022/05/17 03:26:24;;;;;;;11.53;10.37;;;;;;;;;;4959637;28;20191;-77
2022/05/17 03:28:51;;;;;;;10.50;9.47;;;;;;;;;;4959521;28;20204;-77
2022/05/17 03:31:17;;;;;;;8.20;7.40;;;;;;;;;;4975821;28;20176;-77
2022/05/17 03:33:43;;;;;;;9.37;8.37;;;;;;;;;;4959079;28;20555;-77
2022/05/17 03:36:09;;;;;;;8.63;7.70;;;;;;;;;;4959738;28;20188;-77
2022/05/17 03:38:36;;;;;;;12.53;9.67;;;;;;;;;;4959398;28;20189;-77
2022/05/17 03:41:02;;;;;;;12.10;9.70;;;;;;;;;;4959342;28;20238;-77
2022/05/17 03:43:29;;;;;;;10.77;9.27;;;;;;;;;;4975137;28;20207;-77
2022/05/17 03:45:56;;;;;;;17.57;10.60;;;;;;;;;;4975630;28;20674;-77
2022/05/17 03:48:23;;;;;;;14.40;10.57;;;;;;;;;;4975134;28;20243;-77
2022/05/17 03:50:49;;;;;;;16.73;9.73;;;;;;;;;;4975404;28;20176;-76
2022/05/17 03:53:15;;;;;;;14.47;9.33;;;;;;;;;;4959057;28;20211;-77
2022/05/17 03:55:41;;;;;;;12.23;10.07;;;;;;;;;;4975098;28;20187;-77
2022/05/17 03:58:08;;;;;;;10.33;9.23;;;;;;;;;;4959147;28;20185;-77
2022/05/17 04:00:34;;;;;;;10.63;9.40;;;;;;;;;;4959288;28;20195;-77
2022/05/17 04:03:00;;;;;;;10.40;9.33;;;;;;;;;;4958781;28;20223;-77
2022/05/17 04:05:26;;;;;;;10.60;9.40;;;;;;;;;;4959253;28;20192;-77
2022/05/17 04:07:52;;;;;;;10.13;9.10;;;;;;;;;;4958996;28;20716;-77
2022/05/17 04:10:18;;;;;;;8.57;7.77;;;;;;;;;;4958880;28;20205;-77
2022/05/17 04:12:44;;;;;;;9.40;8.50;;;;;;;;;;4958413;28;20216;-77
2022/05/17 04:15:13;;;;;;;9.20;8.30;;;;;;;;;;4974953;28;20612;-77
2022/05/17 04:17:39;;;;;;;16.27;9.63;;;;;;;;;;4974639;28;20176;-77
2022/05/17 04:20:05;;;;;;;13.93;9.73;;;;;;;;;;4958626;28;20177;-77
2022/05/17 04:22:31;;;;;;;15.43;9.70;;;;;;;;;;4973669;28;20639;-77
2022/05/17 04:24:58;;;;;;;11.40;10.20;;;;;;;;;;4974749;28;20172;-77
2022/05/17 04:27:25;;;;;;;11.07;9.80;;;;;;;;;;4958535;28;20184;-77
2022/05/17 04:29:51;;;;;;;12.27;10.27;;;;;;;;;;4974767;28;20624;-77
2022/05/17 04:32:17;;;;;;;10.73;9.70;;;;;;;;;;4974337;28;20192;-77
2022/05/17 04:34:43;;;;;;;11.23;9.80;;;;;;;;;;4974499;28;20255;-77
2022/05/17 04:37:09;;;;;;;11.53;10.33;;;;;;;;;;4958450;28;20647;-77
2022/05/17 04:39:36;;;;;;;11.63;10.43;;;;;;;;;;4958389;28;20196;-77
2022/05/17 04:42:02;;;;;;;17.93;11.60;;;;;;;;;;4974172;28;20184;-77
2022/05/17 04:44:28;;;;;;;22.20;12.73;;;;;;;;;;4958200;28;20638;-77
2022/05/17 04:46:54;;;;;;;26.20;11.67;;;;;;;;;;4958352;28;20786;-77
2022/05/17 04:49:20;;;;;;;15.77;11.93;;;;;;;;;;4974216;28;20250;-77
2022/05/17 04:51:50;;;;;;;20.43;12.00;;;;;;;;;;4974149;28;20176;-77
2022/05/17 04:54:16;;;;;;;16.57;12.10;;;;;;;;;;4973857;28;20227;-77
2022/05/17 04:56:42;;;;;;;29.87;12.33;;;;;;;;;;4958545;28;20211;-77
2022/05/17 04:59:08;;;;;;;19.20;12.07;;;;;;;;;;4958462;28;20185;-77
2022/05/17 05:01:34;;;;;;;18.43;11.20;;;;;;;;;;4974772;28;20211;-77
2022/05/17 05:04:00;;;;;;;18.20;12.00;;;;;;;;;;4974348;28;20216;-77
2022/05/17 05:06:29;;;;;;;14.53;11.87;;;;;;;;;;4958642;28;20238;-77
2022/05/17 05:08:55;;;;;;;14.90;11.73;;;;;;;;;;4974270;28;20689;-77
2022/05/17 05:11:21;;;;;;;14.57;11.57;;;;;;;;;;4958593;28;20192;-77
2022/05/17 05:13:47;;;;;;;14.50;11.83;;;;;;;;;;4974265;28;20382;-77
2022/05/17 05:16:14;;;;;;;16.63;11.60;;;;;;;;;;4958445;28;20617;-77
2022/05/17 05:18:40;;;;;;;13.40;11.00;;;;;;;;;;4958453;28;20208;-77
2022/05/17 05:21:09;;;;;;;17.77;11.13;;;;;;;;;;4974407;28;20527;-79
2022/05/17 05:23:35;;;;;;;17.60;11.47;;;;;;;;;;4958315;28;20208;-77
2022/05/17 05:26:01;;;;;;;18.63;12.00;;;;;;;;;;4958534;28;20245;-77
2022/05/17 05:28:28;;;;;;;17.40;11.97;;;;;;;;;;4958498;28;20204;-77
2022/05/17 05:30:54;;;;;;;21.63;12.73;;;;;;;;;;4958354;28;20191;-76
2022/05/17 05:33:21;;;;;;;16.40;11.60;;;;;;;;;;4973551;28;20675;-77
2022/05/17 05:35:47;;;;;;;22.30;12.87;;;;;;;;;;4958169;28;20183;-77
2022/05/17 05:38:13;;;;;;;13.80;12.00;;;;;;;;;;4973735;28;20180;-77
2022/05/17 05:40:39;;;;;;;26.57;12.33;;;;;;;;;;4974103;28;20267;-76
2022/05/17 05:43:06;;;;;;;17.27;11.27;;;;;;;;;;4957806;28;20204;-77
2022/05/17 05:45:32;;;;;;;15.27;11.60;;;;;;;;;;4957586;28;20722;-76
2022/05/17 05:48:23;;;;;;;17.27;10.80;;;;;;;;;;4957583;28;20303;-77
2022/05/17 05:50:49;;;;;;;16.07;11.20;;;;;;;;;;4973609;28;20711;-77
2022/05/17 05:53:15;;;;;;;21.17;11.60;;;;;;;;;;4957285;28;20694;-76
2022/05/17 05:55:41;;;;;;;13.80;12.40;;;;;;;;;;4973763;28;20705;-77
2022/05/17 05:58:08;;;;;;;14.60;13.10;;;;;;;;;;4957672;28;20188;-78
2022/05/17 06:00:35;;;;;;;20.70;12.23;;;;;;;;;;4973658;28;20228;-78
2022/05/17 06:03:02;;;;;;;27.33;12.47;;;;;;;;;;4973047;28;20208;-77
2022/05/17 06:05:28;;;;;;;22.03;12.70;;;;;;;;;;4973233;28;20172;-77
2022/05/17 06:07:54;;;;;;;20.97;12.37;;;;;;;;;;4957584;28;20649;-77
2022/05/17 06:10:21;;;;;;;20.23;13.33;;;;;;;;;;4967570;28;20272;-77
2022/05/17 06:12:47;;;;;;;17.40;13.07;;;;;;;;;;4956191;28;20627;-76
2022/05/17 06:15:13;;;;;;;18.10;13.17;;;;;;;;;;4956656;28;20188;-77
2022/05/17 06:17:40;;;;;;;25.83;13.43;;;;;;;;;;4953107;28;20224;-77
2022/05/17 06:20:06;;;;;;;15.83;14.00;;;;;;;;;;4967753;28;20188;-77
2022/05/17 06:22:34;;;;;;;15.17;13.60;;;;;;;;;;4971919;28;20240;-76
2022/05/17 06:25:00;;;;;;;19.40;14.53;;;;;;;;;;4972340;28;20180;-76
2022/05/17 06:27:26;;;;;;;17.70;15.60;;;;;;;;;;4972544;28;20199;-76
2022/05/17 06:29:52;;;;;;;17.27;14.83;;;;;;;;;;4956490;28;20170;-76
2022/05/17 06:32:19;;;;;;;17.37;14.83;;;;;;;;;;4973302;28;20169;-77
2022/05/17 06:34:45;;;;;;;18.90;15.40;;;;;;;;;;4972518;28;20250;-77
2022/05/17 06:37:11;;;;;;;17.17;15.37;;;;;;;;;;4972320;28;20168;-77
2022/05/17 06:39:38;;;;;;;18.27;15.83;;;;;;;;;;4956393;28;20185;-76
2022/05/17 06:42:05;;;;;;;21.13;16.43;;;;;;;;;;4972110;28;20232;-76
2022/05/17 06:44:32;;;;;;;17.17;15.23;;;;;;;;;;4971776;28;20200;-77
2022/05/17 06:47:01;;;;;;;17.40;14.93;;;;;;;;;;4972251;28;20267;-77
2022/05/17 06:49:27;;;;;;;17.77;15.40;;;;;;;;;;4972070;28;20674;-77
2022/05/17 06:51:57;;;;;;;17.80;15.73;;;;;;;;;;4973214;28;20322;-76
2022/05/17 06:54:23;;;;;;;16.83;14.93;;;;;;;;;;4972173;28;20203;-76
2022/05/17 06:56:49;;;;;;;20.47;15.53;;;;;;;;;;4956248;28;20640;-76
2022/05/17 06:59:15;;;;;;;19.20;16.67;;;;;;;;;;4956030;28;20176;-76
2022/05/17 07:01:41;;;;;;;21.07;16.67;;;;;;;;;;4972077;28;20207;-77
2022/05/17 07:04:07;;;;;;;19.10;16.73;;;;;;;;;;4956423;28;20224;-76
2022/05/17 07:06:33;;;;;;;18.77;16.13;;;;;;;;;;4956093;28;20262;-76
2022/05/17 07:08:59;;;;;;;20.40;16.73;;;;;;;;;;4956057;28;20216;-76
2022/05/17 07:14:10;;;;;;;17.60;15.47;;;;;;;;;;4972651;28;20203;-76
2022/05/17 07:16:36;;;;;;;19.83;16.30;;;;;;;;;;4972070;28;20217;-76
2022/05/17 07:19:02;;;;;;;18.97;16.47;;;;;;;;;;4970840;28;20181;-76
2022/05/17 07:21:28;;;;;;;18.67;15.83;;;;;;;;;;4968221;28;20287;-76
2022/05/17 07:23:54;;;;;;;19.10;17.03;;;;;;;;;;4971561;28;20299;-76
2022/05/17 07:26:20;;;;;;;20.87;17.27;;;;;;;;;;4955683;28;20180;-76
2022/05/17 07:28:47;;;;;;;23.03;17.33;;;;;;;;;;4971746;28;20212;-76
2022/05/17 07:31:14;;;;;;;19.83;16.63;;;;;;;;;;4971731;28;20231;-76
2022/05/17 07:33:40;;;;;;;21.00;17.07;;;;;;;;;;4971476;28;20196;-76
2022/05/17 07:36:07;;;;;;;20.77;17.53;;;;;;;;;;4971719;28;20279;-76
2022/05/17 07:38:34;;;;;;;21.73;17.80;;;;;;;;;;4960597;28;20264;-76
2022/05/17 07:41:00;;;;;;;17.97;15.87;;;;;;;;;;4936524;28;20185;-76
2022/05/17 07:43:26;;;;;;;18.33;16.10;;;;;;;;;;4952110;28;20209;-76
2022/05/17 07:45:52;;;;;;;19.77;16.07;;;;;;;;;;4936644;28;20280;-76
2022/05/17 07:48:19;;;;;;;21.93;16.07;;;;;;;;;;4936493;29;20204;-76
2022/05/17 07:50:46;;;;;;;18.07;15.33;;;;;;;;;;4936454;29;20177;-76
2022/05/17 07:53:14;;;;;;;16.83;13.90;;;;;;;;;;4952067;28;20193;-76
2022/05/17 07:55:41;;;;;;;16.93;12.63;;;;;;;;;;4952288;28;20644;-82
2022/05/17 07:58:07;;;;;;;15.97;13.07;;;;;;;;;;4957107;28;20216;-76
2022/05/17 08:00:33;;;;;;;16.30;13.63;;;;;;;;;;4974810;28;20654;-76
2022/05/17 08:03:00;;;;;;;17.20;13.37;;;;;;;;;;4958852;28;20219;-76
2022/05/17 08:05:27;;;;;;;14.77;13.13;;;;;;;;;;4959035;28;20212;-76
2022/05/17 08:07:53;;;;;;;13.83;11.97;;;;;;;;;;4974845;28;20197;-76
2022/05/17 08:10:20;;;;;;;14.43;10.50;;;;;;;;;;4958876;28;20176;-76
2022/05/17 08:12:46;;;;;;;14.57;11.53;;;;;;;;;;4975777;28;20199;-76
2022/05/17 08:15:12;;;;;;;12.60;11.07;;;;;;;;;;4974683;28;20204;-76
2022/05/17 08:17:38;;;;;;;14.37;10.83;;;;;;;;;;4958974;28;20180;-76
2022/05/17 08:20:09;;;;;;;12.93;8.70;;;;;;;;;;4958718;28;20251;-76
2022/05/17 08:22:37;;;;;;;12.57;9.00;;;;;;;;;;4975576;28;20655;-76
2022/05/17 08:27:48;;;;;;;11.13;9.07;;;;;;;;;;4975025;28;20223;-76
2022/05/17 08:30:19;;;;;;;10.67;8.67;;;;;;;;;;4974481;28;20184;-76
2022/05/17 08:35:42;;;;;;;10.30;7.43;;;;;;;;;;4960114;28;20280;-76
2022/05/17 08:38:10;;;;;;;12.17;8.67;;;;;;;;;;4969845;28;20271;-76
2022/05/17 08:40:43;;;;;;;8.90;7.23;;;;;;;;;;4955339;28;20252;-76
2022/05/17 08:43:28;;;;;;;7.70;6.57;;;;;;;;;;4955814;28;20201;-76
2022/05/17 08:46:10;;;;;;;7.60;6.23;;;;;;;;;;4967997;28;20207;-76
2022/05/17 08:48:43;;;;;;;8.73;6.37;;;;;;;;;;4974036;28;20266;-76
2022/05/17 08:51:12;;;;;;;9.50;7.15;;;;;;;;;;4975368;28;20168;-76
2022/05/17 08:53:39;;;;;;;9.82;7.80;;;;;;;;;;4973624;28;20200;-76
2022/05/17 08:56:05;;;;;;;10.02;7.35;;;;;;;;;;4958946;28;20192;-76
2022/05/17 08:58:33;;;;;;;12.55;9.13;;;;;;;;;;4974568;28;20176;-77
2022/05/17 09:01:06;;;;;;;11.40;8.45;;;;;;;;;;4974657;28;20179;-77
2022/05/17 09:03:36;;;;;;;10.15;8.20;;;;;;;;;;4974461;28;20288;-77
2022/05/17 09:06:21;;;;;;;12.35;9.07;;;;;;;;;;4974786;28;20223;-77
2022/05/17 09:08:50;;;;;;;11.95;9.82;;;;;;;;;;4974169;28;20286;-77
2022/05/17 09:11:24;;;;;;;13.52;10.70;;;;;;;;;;4974555;28;20689;-77
2022/05/17 09:13:56;;;;;;;16.33;10.68;;;;;;;;;;4974173;28;20614;-77
2022/05/17 09:16:24;;;;;;;11.15;9.10;;;;;;;;;;4975368;28;20647;-77
2022/05/17 09:18:50;;;;;;;9.77;8.13;;;;;;;;;;4974419;28;20172;-77
2022/05/17 09:21:36;;;;;;;11.02;8.65;;;;;;;;;;4974404;28;20228;-77
2022/05/17 09:24:04;;;;;;;9.73;7.47;;;;;;;;;;4974196;28;20207;-76
2022/05/17 09:26:31;;;;;;;9.40;7.22;;;;;;;;;;4974308;28;20203;-77
2022/05/17 09:29:16;;;;;;;9.82;7.97;;;;;;;;;;4974008;28;20223;-77
2022/05/17 09:31:46;;;;;;;8.38;6.60;;;;;;;;;;4974112;28;20669;-76
2022/05/17 09:34:12;;;;;;;10.20;6.40;;;;;;;;;;4974136;28;20188;-77
2022/05/17 09:36:50;;;;;;;9.80;6.65;;;;;;;;;;4974094;28;20173;-77
2022/05/17 09:39:19;;;;;;;9.63;6.90;;;;;;;;;;4973706;28;20216;-77
2022/05/17 09:41:45;;;;;;;9.95;7.80;;;;;;;;;;4973814;28;20176;-76
2022/05/17 09:44:14;;;;;;;11.38;8.18;;;;;;;;;;4973881;28;20210;-77
2022/05/17 09:46:45;;;;;;;7.88;6.32;;;;;;;;;;4974792;28;20179;-77
2022/05/17 09:54:55;;;;;;;7.13;4.72;;;;;;;;;;4974066;28;20180;-77
2022/05/17 09:57:22;;;;;;;8.32;5.05;;;;;;;;;;4973742;28;20176;-77
2022/05/17 09:59:49;;;;;;;8.35;4.80;;;;;;;;;;4973830;28;20627;-77
2022/05/17 10:02:24;;;;;;;6.25;4.82;;;;;;;;;;4973599;28;20176;-77
2022/05/17 10:04:50;;;;;;;7.05;5.18;;;;;;;;;;4973325;28;20222;-77
2022/05/17 10:07:18;;;;;;;7.65;5.03;;;;;;;;;;4957510;28;20262;-77
2022/05/17 10:09:45;;;;;;;5.45;4.40;;;;;;;;;;4973180;28;20192;-77
2022/05/17 10:12:11;;;;;;;6.53;4.05;;;;;;;;;;4957122;28;20184;-77
2022/05/17 10:14:43;;;;;;;7.57;3.97;;;;;;;;;;4973276;28;20188;-77
2022/05/17 10:17:12;;;;;;;5.35;3.80;;;;;;;;;;4973317;28;20173;-77
2022/05/17 10:19:47;;;;;;;4.10;3.65;;;;;;;;;;4972409;28;20203;-78
2022/05/17 10:22:18;;;;;;;4.72;3.75;;;;;;;;;;4972915;28;20179;-77
2022/05/17 10:24:48;;;;;;;6.45;3.90;;;;;;;;;;4973124;28;20189;-78
2022/05/17 10:27:34;;;;;;;3.33;2.70;;;;;;;;;;4973864;28;20183;-79
2022/05/17 10:30:06;;;;;;;4.20;3.08;;;;;;;;;;4973314;28;20697;-79
2022/05/17 10:32:41;;;;;;;5.95;3.20;;;;;;;;;;4973114;28;20765;-78
2022/05/17 10:35:29;;;;;;;5.13;2.92;;;;;;;;;;4973101;28;20184;-78
2022/05/17 10:38:02;;;;;;;4.55;3.30;;;;;;;;;;4972981;28;20248;-77
2022/05/17 10:40:34;;;;;;;7.63;3.80;;;;;;;;;;4957703;28;20231;-77
2022/05/17 10:43:01;;;;;;;4.28;3.17;;;;;;;;;;4972791;28;20556;-77
2022/05/17 10:45:36;;;;;;;4.53;3.03;;;;;;;;;;4956667;28;20558;-77
2022/05/17 10:48:22;;;;;;;5.18;3.70;;;;;;;;;;4973969;28;20207;-77
2022/05/17 10:50:56;;;;;;;5.03;3.50;;;;;;;;;;4974251;28;20249;-77
2022/05/17 10:53:38;;;;;;;6.55;4.28;;;;;;;;;;4973614;28;20184;-77
2022/05/17 10:56:29;;;;;;;7.35;4.47;;;;;;;;;;4972588;28;20759;-77
2022/05/17 10:58:55;;;;;;;5.32;3.40;;;;;;;;;;4972589;28;20164;-77
2022/05/17 11:01:29;;;;;;;4.82;3.10;;;;;;;;;;4973870;28;20241;-77
2022/05/17 11:03:58;;;;;;;5.32;3.28;;;;;;;;;;4972321;28;20215;-78
2022/05/17 11:06:32;;;;;;;7.35;4.05;;;;;;;;;;4973781;28;20172;-78
2022/05/17 11:09:01;;;;;;;5.78;3.40;;;;;;;;;;4972494;28;20196;-78
2022/05/17 11:11:28;;;;;;;5.47;3.35;;;;;;;;;;4973706;28;20729;-78
2022/05/17 11:14:09;;;;;;;5.85;3.50;;;;;;;;;;4973768;28;20188;-77
2022/05/17 11:16:38;;;;;;;4.30;2.80;;;;;;;;;;4972415;28;20588;-78
2022/05/17 11:19:11;;;;;;;5.05;3.00;;;;;;;;;;4956512;28;20181;-78
2022/05/17 11:21:48;;;;;;;4.47;2.83;;;;;;;;;;4972772;28;20730;-78
2022/05/17 11:24:33;;;;;;;4.25;2.55;;;;;;;;;;4973507;28;20246;-78
2022/05/17 11:27:13;;;;;;;3.83;2.55;;;;;;;;;;4973566;28;20176;-78
2022/05/17 11:29:48;;;;;;;3.88;2.97;;;;;;;;;;4972585;28;20196;-78
2022/05/17 11:32:34;;;;;;;5.28;3.08;;;;;;;;;;4974884;28;20211;-78
2022/05/17 11:35:02;;;;;;;5.70;2.70;;;;;;;;;;4976289;28;20194;-78
2022/05/17 11:37:38;;;;;;;3.53;2.30;;;;;;;;;;4960036;28;20180;-78
2022/05/17 11:40:07;;;;;;;4.13;2.60;;;;;;;;;;4976001;28;20176;-78
2022/05/17 11:43:40;;;;;;;6.47;2.80;;;;;;;;;;4960161;28;20319;-78
2022/05/17 11:45:40;;;;;;;3.45;2.45;;;;;;;;;;4977117;28;20552;-78
2022/05/17 11:48:14;;;;;;;4.22;2.20;;;;;;;;;;4976088;28;20196;-77
2022/05/17 11:50:42;;;;;;;3.58;2.45;;;;;;;;;;4976072;28;20247;-78
2022/05/17 11:53:23;;;;;;;3.83;2.33;;;;;;;;;;4975795;28;20220;-78
2022/05/17 11:56:08;;;;;;;6.05;2.63;;;;;;;;;;4956338;28;20715;-78
2022/05/17 11:58:34;;;;;;;3.40;2.13;;;;;;;;;;4956344;28;20184;-78
2022/05/17 12:01:00;;;;;;;4.75;2.45;;;;;;;;;;4957348;28;20179;-78
2022/05/17 12:03:46;;;;;;;4.25;2.35;;;;;;;;;;4955907;28;20303;-77
2022/05/17 12:06:28;;;;;;;3.95;2.38;;;;;;;;;;4956130;29;20177;-78
2022/05/17 12:08:54;;;;;;;3.45;2.55;;;;;;;;;;4957578;28;20189;-78
2022/05/17 12:11:20;;;;;;;4.47;2.53;;;;;;;;;;4956198;29;20169;-78
2022/05/17 12:13:52;;;;;;;3.33;2.50;;;;;;;;;;4955727;28;20251;-77
2022/05/17 12:16:19;;;;;;;2.38;2.15;;;;;;;;;;4956048;29;20663;-77
2022/05/17 12:18:47;;;;;;;5.95;2.30;;;;;;;;;;4955980;29;20276;-77
2022/05/17 12:21:41;;;;;;;4.38;2.40;;;;;;;;;;4956055;29;20182;-77
2022/05/17 12:24:30;;;;;;;3.50;2.13;;;;;;;;;;4955569;28;20200;-77
2022/05/17 12:27:11;;;;;;;3.58;2.65;;;;;;;;;;4957126;28;20169;-78
2022/05/17 12:32:40;;;;;;;3.75;2.17;;;;;;;;;;4976814;28;20173;-77
2022/05/17 12:35:07;;;;;;;3.30;2.00;;;;;;;;;;4956916;28;20173;-78
2022/05/17 12:37:38;;;;;;;3.67;2.00;;;;;;;;;;4956872;28;20180;-77
2022/05/17 12:43:07;;;;;;;4.13;2.28;;;;;;;;;;4956197;28;20240;-77
2022/05/17 12:45:39;;;;;;;3.38;2.08;;;;;;;;;;4941929;29;20259;-77
2022/05/17 12:48:17;;;;;;;3.67;2.05;;;;;;;;;;4955527;29;20579;-77
2022/05/17 12:50:53;;;;;;;3.40;1.90;;;;;;;;;;4956691;28;20212;-78
2022/05/17 12:53:19;;;;;;;3.83;1.92;;;;;;;;;;4955239;28;20256;-78
2022/05/17 12:56:07;;;;;;;2.90;2.20;;;;;;;;;;4955599;29;20173;-78
2022/05/17 12:58:35;;;;;;;2.20;1.83;;;;;;;;;;4956487;28;20169;-78
2022/05/17 13:01:02;;;;;;;3.30;2.20;;;;;;;;;;4955311;29;20180;-78
2022/05/17 13:03:30;;;;;;;2.47;2.20;;;;;;;;;;4991438;23;20235;-77
2022/05/17 13:05:58;;;;;;;3.13;2.30;;;;;;;;;;4993345;28;20226;-77
2022/05/17 13:08:24;;;;;;;3.97;2.13;;;;;;;;;;4977759;28;20211;-77
2022/05/17 13:10:58;;;;;;;3.72;2.25;;;;;;;;;;4993149;28;20202;-78
2022/05/17 13:13:25;;;;;;;3.85;2.55;;;;;;;;;;4993355;28;20219;-78
2022/05/17 13:15:53;;;;;;;3.45;2.03;;;;;;;;;;4992691;28;20219;-78
2022/05/17 13:18:20;;;;;;;3.33;2.20;;;;;;;;;;4992908;28;20180;-78
2022/05/17 13:20:48;;;;;;;3.35;2.17;;;;;;;;;;4993019;28;20206;-78
2022/05/17 13:23:15;;;;;;;2.97;2.08;;;;;;;;;;4992727;28;20285;-78
2022/05/17 13:25:44;;;;;;;5.28;2.30;;;;;;;;;;4992961;28;20180;-78
2022/05/17 13:28:10;;;;;;;3.78;2.20;;;;;;;;;;4993126;28;20199;-78
2022/05/17 13:30:41;;;;;;;3.38;2.20;;;;;;;;;;4994192;28;20599;-78
2022/05/17 13:33:09;;;;;;;3.53;2.30;;;;;;;;;;4976527;28;20202;-78
2022/05/17 13:35:37;;;;;;;2.30;2.10;;;;;;;;;;4976708;28;20234;-78
2022/05/17 13:38:06;;;;;;;3.08;2.10;;;;;;;;;;4993047;28;20262;-78
2022/05/17 13:40:35;;;;;;;2.63;2.10;;;;;;;;;;4992889;28;20203;-78
2022/05/17 13:43:01;;;;;;;2.58;1.90;;;;;;;;;;4992569;28;20172;-78
2022/05/17 13:45:30;;;;;;;3.22;2.20;;;;;;;;;;4976856;28;20184;-78
2022/05/17 13:47:56;;;;;;;3.22;2.00;;;;;;;;;;4992792;28;20198;-78
2022/05/17 13:50:25;;;;;;;3.10;2.03;;;;;;;;;;4994009;28;20706;-78
2022/05/17 13:52:56;;;;;;;3.95;2.30;;;;;;;;;;4992397;28;20172;-78
2022/05/17 13:55:28;;;;;;;2.97;1.98;;;;;;;;;;4991646;28;20176;-78
2022/05/17 13:57:55;;;;;;;3.30;2.08;;;;;;;;;;4976344;28;20210;-78
2022/05/17 14:00:21;;;;;;;4.18;2.25;;;;;;;;;;4976290;28;20183;-78
2022/05/17 14:02:47;;;;;;;3.35;2.10;;;;;;;;;;4992140;28;20665;-78
2022/05/17 14:05:18;;;;;;;2.65;2.00;;;;;;;;;;4992504;28;20198;-78
2022/05/17 14:07:55;;;;;;;3.28;2.10;;;;;;;;;;4992359;28;20172;-78
2022/05/17 14:13:19;;;;;;;3.75;2.08;;;;;;;;;;4992339;28;20222;-78
2022/05/17 14:15:45;;;;;;;4.35;2.40;;;;;;;;;;4992224;28;20168;-78
2022/05/17 14:18:13;;;;;;;2.50;2.15;;;;;;;;;;4992049;28;20175;-78
2022/05/17 14:20:40;;;;;;;3.03;2.10;;;;;;;;;;4993306;28;20168;-78
2022/05/17 14:23:06;;;;;;;2.20;2.00;;;;;;;;;;4991663;28;20223;-78
2022/05/17 14:25:32;;;;;;;2.47;2.22;;;;;;;;;;4975997;28;20292;-78
2022/05/17 14:27:58;;;;;;;3.45;2.10;;;;;;;;;;4975768;28;20229;-78
2022/05/17 14:30:27;;;;;;;2.92;2.17;;;;;;;;;;4992083;28;20176;-78
2022/05/17 14:32:54;;;;;;;3.30;2.25;;;;;;;;;;4991559;28;20175;-78
2022/05/17 14:35:21;;;;;;;2.63;2.05;;;;;;;;;;4992039;28;20168;-78
2022/05/17 14:37:48;;;;;;;2.78;2.08;;;;;;;;;;4992471;28;20171;-78
2022/05/17 14:40:14;;;;;;;3.05;2.10;;;;;;;;;;4992061;28;20176;-78
2022/05/17 14:42:41;;;;;;;2.70;2.00;;;;;;;;;;4992015;28;20163;-78
2022/05/17 14:45:07;;;;;;;5.43;2.38;;;;;;;;;;4992030;28;20206;-78
2022/05/17 14:47:33;;;;;;;3.83;2.35;;;;;;;;;;4991975;28;20174;-78
2022/05/17 14:50:00;;;;;;;3.05;2.30;;;;;;;;;;4992215;28;20670;-78
2022/05/17 14:52:26;;;;;;;5.22;2.05;;;;;;;;;;4976166;28;20183;-78
2022/05/17 14:54:52;;;;;;;3.65;2.17;;;;;;;;;;4993239;28;20272;-78
2022/05/17 14:57:18;;;;;;;3.05;2.13;;;;;;;;;;4976319;28;20605;-78
2022/05/17 14:59:44;;;;;;;2.88;2.05;;;;;;;;;;4975932;28;20183;-78
2022/05/17 15:02:11;;;;;;;3.38;2.03;;;;;;;;;;4976194;28;20179;-77
2022/05/17 15:04:40;;;;;;;3.80;2.22;;;;;;;;;;4994617;28;20210;-78
2022/05/17 15:07:10;;;;;;;3.35;2.25;;;;;;;;;;4997261;28;20198;-79